createdAt,value
2024-03-02T00:01:45.568Z,11.50
2024-03-02T00:03:47.416Z,9.30
2024-03-02T00:05:55.404Z,10.68
2024-03-02T00:07:59.042Z,8.63
2024-03-02T00:10:01.798Z,8.35
2024-03-02T00:12:04.279Z,8.15
2024-03-02T00:14:06.162Z,7.50
2024-03-02T00:16:08.361Z,9.57
2024-03-02T00:18:13.524Z,8.63
2024-03-02T00:20:20.163Z,8.63
2024-03-02T00:22:22.002Z,10.02
2024-03-02T00:24:34.369Z,9.55
2024-03-02T00:26:36.119Z,8.10
2024-03-02T00:28:38.806Z,9.57
2024-03-02T00:30:46.458Z,8.57
2024-03-02T00:32:48.449Z,10.70
2024-03-02T00:34:50.153Z,8.65
2024-03-02T00:36:52.423Z,10.23
2024-03-02T00:38:56.065Z,9.23
2024-03-02T00:41:00.432Z,10.20
2024-03-02T00:43:03.496Z,9.68
2024-03-02T00:45:09.208Z,9.00
2024-03-02T00:47:10.909Z,8.13
2024-03-02T00:49:12.503Z,9.15
2024-03-02T00:51:14.147Z,8.35
2024-03-02T00:53:15.798Z,9.70
2024-03-02T00:55:17.698Z,8.18
2024-03-02T00:57:19.481Z,8.95
2024-03-02T00:59:21.199Z,8.27
2024-03-02T01:01:23.827Z,12.13
2024-03-02T01:03:25.721Z,10.75
2024-03-02T01:05:27.578Z,10.73
2024-03-02T01:07:29.217Z,10.80
2024-03-02T01:09:30.917Z,10.63
2024-03-02T01:11:33.149Z,7.68
2024-03-02T01:13:35.233Z,9.73
2024-03-02T01:15:37.005Z,8.55
2024-03-02T01:17:39.051Z,10.60
2024-03-02T01:19:43.216Z,9.23
2024-03-02T01:21:45.088Z,9.73
2024-03-02T01:23:46.798Z,9.75
2024-03-02T01:25:49.057Z,10.57
2024-03-02T01:27:50.892Z,10.18
2024-03-02T01:29:52.749Z,8.90
2024-03-02T01:31:54.995Z,9.05
2024-03-02T01:33:57.339Z,11.45
2024-03-02T01:35:59.113Z,11.07
2024-03-02T01:38:00.785Z,10.50
2024-03-02T01:40:02.678Z,10.85
2024-03-02T01:42:04.520Z,9.30
2024-03-02T01:44:06.446Z,11.05
2024-03-02T01:46:08.341Z,10.85
2024-03-02T01:48:10.334Z,11.27
2024-03-02T01:50:15.386Z,11.63
2024-03-02T01:52:17.042Z,8.98
2024-03-02T01:54:18.770Z,12.05
2024-03-02T01:56:20.777Z,9.85
2024-03-02T01:58:22.440Z,10.85
2024-03-02T02:00:26.499Z,11.60
2024-03-02T02:02:28.568Z,8.98
2024-03-02T02:04:30.210Z,10.20
2024-03-02T02:06:31.946Z,10.38
2024-03-02T02:08:33.873Z,11.52
2024-03-02T02:10:35.589Z,11.00
2024-03-02T02:12:37.867Z,12.75
2024-03-02T02:14:41.240Z,10.23
2024-03-02T02:16:42.955Z,10.48
2024-03-02T02:18:44.879Z,11.48
2024-03-02T02:20:46.811Z,12.50
2024-03-02T02:22:57.566Z,15.30
2024-03-02T02:24:59.257Z,12.20
2024-03-02T02:27:00.937Z,12.07
2024-03-02T02:29:02.621Z,12.40
2024-03-02T02:31:04.659Z,10.85
2024-03-02T02:33:06.412Z,10.93
2024-03-02T02:35:08.377Z,11.38
2024-03-02T02:37:10.385Z,11.15
2024-03-02T02:39:18.201Z,9.57
2024-03-02T02:41:19.891Z,10.95
2024-03-02T02:43:21.779Z,9.73
2024-03-02T02:45:23.639Z,11.77
2024-03-02T02:47:25.382Z,10.10
2024-03-02T02:49:27.045Z,10.40
2024-03-02T02:51:28.802Z,9.57
2024-03-02T02:53:30.746Z,10.25
2024-03-02T02:55:32.950Z,11.13
2024-03-02T02:57:40.107Z,9.95
2024-03-02T02:59:41.777Z,10.57
2024-03-02T03:01:43.479Z,9.75
2024-03-02T03:03:46.141Z,9.68
2024-03-02T03:05:47.890Z,8.40
2024-03-02T03:07:52.573Z,9.13
2024-03-02T03:09:54.621Z,9.55
2024-03-02T03:11:56.363Z,11.00
2024-03-02T03:13:58.248Z,9.40
2024-03-02T03:16:00.092Z,8.18
2024-03-02T03:18:01.894Z,10.23
2024-03-02T03:20:05.503Z,10.57
2024-03-02T03:22:07.254Z,9.30
2024-03-02T03:24:09.437Z,11.15
2024-03-02T03:26:11.165Z,9.23
2024-03-02T03:28:12.835Z,11.60
2024-03-02T03:30:15.098Z,8.50
2024-03-02T03:32:18.091Z,8.82
2024-03-02T03:34:19.741Z,9.98
2024-03-02T03:36:21.447Z,10.13
2024-03-02T03:38:23.261Z,11.30
2024-03-02T03:40:24.923Z,10.18
2024-03-02T03:42:26.671Z,10.35
2024-03-02T03:44:28.371Z,9.48
2024-03-02T03:46:30.065Z,9.20
2024-03-02T03:48:32.176Z,9.30
2024-03-02T03:50:33.948Z,9.13
2024-03-02T03:52:35.714Z,9.48
2024-03-02T03:54:39.761Z,10.50
2024-03-02T03:56:41.382Z,10.02
2024-03-02T03:58:43.058Z,10.63
2024-03-02T04:00:44.971Z,11.38
2024-03-02T04:02:46.901Z,12.73
2024-03-02T04:04:48.765Z,8.65
2024-03-02T04:06:50.756Z,8.27
2024-03-02T04:08:52.853Z,11.90
2024-03-02T04:10:54.785Z,11.43
2024-03-02T04:12:56.641Z,11.52
2024-03-02T04:14:58.307Z,11.90
2024-03-02T04:16:59.996Z,12.18
2024-03-02T04:19:01.827Z,10.48
2024-03-02T04:21:03.575Z,13.05
2024-03-02T04:23:05.350Z,12.25
2024-03-02T04:25:08.731Z,10.23
2024-03-02T04:27:10.496Z,12.20
2024-03-02T04:29:12.275Z,10.50
2024-03-02T04:31:13.983Z,12.05
2024-03-02T04:33:15.957Z,11.77
2024-03-02T04:35:17.931Z,9.70
2024-03-02T04:37:19.609Z,11.18
2024-03-02T04:39:21.322Z,13.15
2024-03-02T04:41:23.041Z,13.95
2024-03-02T04:43:24.691Z,12.35
2024-03-02T04:45:26.405Z,11.23
2024-03-02T04:47:28.175Z,11.77
2024-03-02T04:49:30.025Z,9.93
2024-03-02T04:51:31.830Z,11.02
2024-03-02T04:53:33.574Z,12.27
2024-03-02T04:55:35.246Z,12.45
2024-03-02T04:57:37.326Z,12.07
2024-03-02T04:59:38.979Z,10.38
2024-03-02T05:01:40.706Z,12.10
2024-03-02T05:03:42.399Z,11.38
2024-03-02T05:05:44.391Z,12.38
2024-03-02T05:07:46.256Z,18.55
2024-03-02T05:09:49.662Z,17.67
2024-03-02T05:12:10.044Z,17.60
2024-03-02T05:14:12.041Z,19.08
2024-03-02T05:16:13.749Z,17.23
2024-03-02T05:18:15.731Z,22.80
2024-03-02T05:20:18.264Z,22.58
2024-03-02T05:22:19.918Z,19.52
2024-03-02T05:24:21.628Z,19.48
2024-03-02T05:26:23.536Z,18.05
2024-03-02T05:28:25.309Z,18.30
2024-03-02T05:30:27.647Z,16.13
2024-03-02T05:32:29.416Z,14.50
2024-03-02T05:34:31.987Z,15.40
2024-03-02T05:36:33.670Z,15.80
2024-03-02T05:38:38.678Z,17.63
2024-03-02T05:40:40.319Z,13.07
2024-03-02T05:42:42.868Z,11.82
2024-03-02T05:44:44.656Z,13.45
2024-03-02T05:46:47.125Z,14.57
2024-03-02T05:48:49.064Z,12.55
2024-03-02T05:50:51.058Z,14.98
2024-03-02T05:52:52.754Z,14.20
2024-03-02T05:54:54.612Z,11.55
2024-03-02T05:56:56.321Z,12.50
2024-03-02T05:59:17.722Z,12.68
2024-03-02T06:01:19.859Z,10.50
2024-03-02T06:03:21.991Z,12.10
2024-03-02T06:05:23.716Z,15.00
2024-03-02T06:07:25.379Z,13.57
2024-03-02T06:09:27.739Z,12.60
2024-03-02T06:11:29.841Z,10.38
2024-03-02T06:13:31.538Z,12.10
2024-03-02T06:15:34.197Z,10.35
2024-03-02T06:17:38.780Z,12.35
2024-03-02T06:19:40.590Z,9.80
2024-03-02T06:21:42.469Z,11.30
2024-03-02T06:23:44.153Z,12.27
2024-03-02T06:25:45.874Z,10.55
2024-03-02T06:27:47.626Z,11.90
2024-03-02T06:29:49.865Z,11.15
2024-03-02T06:31:54.852Z,10.77
2024-03-02T06:33:56.861Z,11.95
2024-03-02T06:35:58.593Z,13.90
2024-03-02T06:38:00.284Z,9.32
2024-03-02T06:40:02.188Z,9.65
2024-03-02T06:42:04.415Z,10.45
2024-03-02T06:44:08.114Z,12.30
2024-03-02T06:46:10.941Z,9.38
2024-03-02T06:48:12.650Z,8.35
2024-03-02T06:50:14.561Z,10.77
2024-03-02T06:52:16.198Z,8.90
2024-03-02T06:54:17.897Z,8.95
2024-03-02T06:56:19.647Z,10.13
2024-03-02T06:58:21.325Z,9.40
2024-03-02T07:00:23.047Z,9.75
2024-03-02T07:02:25.289Z,11.38
2024-03-02T07:04:27.094Z,10.15
2024-03-02T07:06:28.751Z,7.95
2024-03-02T07:08:30.569Z,9.85
2024-03-02T07:10:32.225Z,7.55
2024-03-02T07:12:34.573Z,9.90
2024-03-02T07:14:55.152Z,8.55
2024-03-02T07:16:56.824Z,10.90
2024-03-02T07:18:58.827Z,10.40
2024-03-02T07:21:02.573Z,10.07
2024-03-02T07:23:04.500Z,10.75
2024-03-02T07:25:08.751Z,9.88
2024-03-02T07:27:11.494Z,8.15
2024-03-02T07:29:13.700Z,10.68
2024-03-02T07:31:15.371Z,12.70
2024-03-02T07:33:18.153Z,9.70
2024-03-02T07:35:19.840Z,9.70
2024-03-02T07:37:21.844Z,8.35
2024-03-02T07:39:23.932Z,11.02
2024-03-02T07:41:25.732Z,5.57
2024-03-02T07:43:27.879Z,10.05
2024-03-02T07:45:29.715Z,10.15
2024-03-02T07:47:31.387Z,12.32
2024-03-02T07:49:33.383Z,12.95
2024-03-02T07:51:35.069Z,10.20
2024-03-02T07:53:37.723Z,13.32
2024-03-02T07:55:39.480Z,9.65
2024-03-02T07:57:42.071Z,10.77
2024-03-02T07:59:44.372Z,11.98
2024-03-02T08:01:46.203Z,11.20
2024-03-02T08:03:49.665Z,9.07
2024-03-02T08:05:51.409Z,10.93
2024-03-02T08:07:54.604Z,13.07
2024-03-02T08:09:56.693Z,8.73
2024-03-02T08:11:59.537Z,9.20
2024-03-02T08:14:01.232Z,9.82
2024-03-02T08:16:04.711Z,9.32
2024-03-02T08:18:06.847Z,10.48
2024-03-02T08:20:09.439Z,9.02
2024-03-02T08:22:11.799Z,8.43
2024-03-02T08:24:13.505Z,8.70
2024-03-02T08:26:15.228Z,8.57
2024-03-02T08:28:17.260Z,9.88
2024-03-02T08:30:19.546Z,8.82
2024-03-02T08:32:21.551Z,8.82
2024-03-02T08:34:23.269Z,8.52
2024-03-02T08:36:25.186Z,8.10
2024-03-02T08:38:27.399Z,9.07
2024-03-02T08:40:30.025Z,9.15
2024-03-02T08:42:31.706Z,8.52
2024-03-02T08:44:34.683Z,7.45
2024-03-02T08:46:36.638Z,6.90
2024-03-02T08:48:38.346Z,7.63
2024-03-02T08:50:40.103Z,6.88
2024-03-02T08:52:41.833Z,7.65
2024-03-02T08:54:43.565Z,8.30
2024-03-02T08:56:45.525Z,7.57
2024-03-02T08:58:47.521Z,9.32
2024-03-02T09:00:49.487Z,9.32
2024-03-02T09:02:51.315Z,9.45
2024-03-02T09:04:53.376Z,10.55
2024-03-02T09:06:55.145Z,9.25
2024-03-02T09:08:57.070Z,9.75
2024-03-02T09:10:58.824Z,10.10
2024-03-02T09:13:01.022Z,6.85
2024-03-02T09:15:07.659Z,9.27
2024-03-02T09:17:12.266Z,7.95
2024-03-02T09:19:14.010Z,7.95
2024-03-02T09:21:16.642Z,10.07
2024-03-02T09:23:18.302Z,8.27
2024-03-02T09:25:19.905Z,7.18
2024-03-02T09:27:22.039Z,9.05
2024-03-02T09:29:23.866Z,7.30
2024-03-02T09:31:25.602Z,7.35
2024-03-02T09:33:27.798Z,6.63
2024-03-02T09:35:30.139Z,6.05
2024-03-02T09:37:31.965Z,7.78
2024-03-02T09:39:33.897Z,7.82
2024-03-02T09:41:36.069Z,6.38
2024-03-02T09:43:37.827Z,6.75
2024-03-02T09:45:39.678Z,6.43
2024-03-02T09:47:41.354Z,7.28
2024-03-02T09:49:43.033Z,8.13
2024-03-02T09:51:51.281Z,7.07
2024-03-02T09:53:58.193Z,8.48
2024-03-02T09:56:02.076Z,6.75
2024-03-02T09:58:04.752Z,6.80
2024-03-02T10:00:07.251Z,6.25
2024-03-02T10:02:08.957Z,6.22
2024-03-02T10:04:11.292Z,5.85
2024-03-02T10:06:26.478Z,5.88
2024-03-02T10:08:41.579Z,5.50
2024-03-02T10:10:44.549Z,5.82
2024-03-02T10:12:46.322Z,5.63
2024-03-02T10:14:50.059Z,5.45
2024-03-02T10:16:51.734Z,7.28
2024-03-02T10:18:53.776Z,5.53
2024-03-02T10:21:14.662Z,6.55
2024-03-02T10:23:18.845Z,6.55
2024-03-02T10:25:43.247Z,6.65
2024-03-02T10:27:53.122Z,7.65
2024-03-02T10:29:55.110Z,5.10
2024-03-02T10:31:57.392Z,5.88
2024-03-02T10:33:59.445Z,6.22
2024-03-02T10:36:02.304Z,8.82
2024-03-02T10:38:06.825Z,4.70
2024-03-02T10:40:09.670Z,3.78
2024-03-02T10:42:12.724Z,4.40
2024-03-02T10:44:15.100Z,4.68
2024-03-02T10:46:20.893Z,3.35
2024-03-02T10:48:23.006Z,4.63
2024-03-02T10:50:26.034Z,3.60
2024-03-02T10:52:27.828Z,2.40
2024-03-02T10:54:37.837Z,3.38
2024-03-02T10:56:42.133Z,2.03
2024-03-02T10:58:44.041Z,4.35
2024-03-02T11:00:47.349Z,3.60
2024-03-02T11:02:53.012Z,2.47
2024-03-02T11:04:56.553Z,2.03
2024-03-02T11:07:05.645Z,2.55
2024-03-02T11:09:11.724Z,2.22
2024-03-02T11:11:21.677Z,1.85
2024-03-02T11:13:33.340Z,1.92
2024-03-02T11:15:37.116Z,2.53
2024-03-02T11:17:42.121Z,2.33
2024-03-02T11:19:45.348Z,2.45
2024-03-02T11:21:47.805Z,2.13
2024-03-02T11:23:49.824Z,2.58
2024-03-02T11:25:51.464Z,1.98
2024-03-02T11:27:56.195Z,1.60
2024-03-02T11:29:57.916Z,1.85
2024-03-02T11:32:03.062Z,1.27
2024-03-02T11:34:30.816Z,1.65
2024-03-02T11:36:32.670Z,1.75
2024-03-02T11:38:35.656Z,1.63
2024-03-02T11:40:37.699Z,1.92
2024-03-02T11:42:39.724Z,2.78
2024-03-02T11:44:44.874Z,2.60
2024-03-02T11:46:53.404Z,4.75
2024-03-02T11:48:55.628Z,1.73
2024-03-02T11:51:01.034Z,1.90
2024-03-02T11:53:03.709Z,3.65
2024-03-02T11:55:07.522Z,2.00
2024-03-02T11:57:10.065Z,2.53
2024-03-02T11:59:12.162Z,2.92
2024-03-02T12:01:14.825Z,2.60
2024-03-02T12:03:16.848Z,2.45
2024-03-02T12:05:18.651Z,2.70
2024-03-02T12:07:25.310Z,3.08
2024-03-02T12:09:31.166Z,3.13
2024-03-02T12:11:32.904Z,2.65
2024-03-02T12:13:35.451Z,3.47
2024-03-02T12:15:39.345Z,5.72
2024-03-02T12:17:41.487Z,5.28
2024-03-02T12:19:43.255Z,4.30
2024-03-02T12:21:45.332Z,16.60
2024-03-02T12:23:47.293Z,15.88
2024-03-02T12:25:49.262Z,11.52
2024-03-02T12:27:55.750Z,7.65
2024-03-02T12:29:57.630Z,23.08
2024-03-02T12:31:59.376Z,22.55
2024-03-02T12:34:01.472Z,30.95
2024-03-02T12:36:03.712Z,25.40
2024-03-02T12:38:06.078Z,4.53
2024-03-02T12:40:10.922Z,22.92
2024-03-02T12:42:12.817Z,20.60
2024-03-02T12:44:14.691Z,11.27
2024-03-02T12:46:17.063Z,9.30
2024-03-02T12:48:18.938Z,6.72
2024-03-02T12:50:21.673Z,5.93
2024-03-02T12:52:23.635Z,5.25
2024-03-02T12:54:26.882Z,4.03
2024-03-02T12:56:28.980Z,3.97
2024-03-02T12:58:32.427Z,3.67
2024-03-02T13:00:36.632Z,3.08
2024-03-02T13:04:59.585Z,4.25
2024-03-02T13:07:03.832Z,3.00
2024-03-02T13:09:05.853Z,1.67
2024-03-02T13:11:08.554Z,2.20
2024-03-02T13:13:10.503Z,3.28
2024-03-02T13:15:16.319Z,1.85
2024-03-02T13:17:20.729Z,2.15
2024-03-02T13:19:22.753Z,2.78
2024-03-02T13:21:24.551Z,2.45
2024-03-02T13:23:26.376Z,2.80
2024-03-02T13:25:29.557Z,2.33
2024-03-02T13:27:35.778Z,2.22
2024-03-02T13:29:38.478Z,2.20
2024-03-02T13:31:41.276Z,2.08
2024-03-02T13:33:43.075Z,4.53
2024-03-02T13:35:44.816Z,1.92
2024-03-02T13:37:46.485Z,3.08
2024-03-02T13:39:48.385Z,2.15
2024-03-02T13:41:54.170Z,2.25
2024-03-02T13:43:55.969Z,2.63
2024-03-02T13:45:57.848Z,2.47
2024-03-02T13:47:59.751Z,2.30
2024-03-02T13:50:01.483Z,2.15
2024-03-02T13:52:11.832Z,2.05
2024-03-02T13:56:15.480Z,1.67
2024-03-02T13:58:17.402Z,2.05
2024-03-02T14:00:20.218Z,1.52
2024-03-02T14:02:22.129Z,1.90
2024-03-02T14:04:24.003Z,1.95
2024-03-02T14:06:28.381Z,2.95
2024-03-02T14:08:30.224Z,2.63
2024-03-02T14:10:31.900Z,2.80
2024-03-02T14:12:33.845Z,3.10
2024-03-02T14:14:35.611Z,2.67
2024-03-02T14:16:37.326Z,2.38
2024-03-02T14:18:39.207Z,2.67
2024-03-02T14:20:42.681Z,2.38
2024-03-02T14:22:44.904Z,2.33
2024-03-02T14:24:46.709Z,3.20
2024-03-02T14:26:48.563Z,2.50
2024-03-02T14:28:51.768Z,2.20
2024-03-02T14:30:55.121Z,2.25
2024-03-02T14:32:56.918Z,2.53
2024-03-02T14:34:58.626Z,2.47
2024-03-02T14:37:00.982Z,2.20
2024-03-02T14:39:02.767Z,2.28
2024-03-02T14:41:05.280Z,2.42
2024-03-02T14:43:06.960Z,2.42
2024-03-02T14:45:08.977Z,2.45
2024-03-02T14:47:10.831Z,2.15
2024-03-02T14:49:13.189Z,3.60
2024-03-02T14:51:15.638Z,2.17
2024-03-02T14:53:17.699Z,2.03
2024-03-02T14:55:19.650Z,2.42
2024-03-02T14:57:21.799Z,2.20
2024-03-02T14:59:23.894Z,3.47
2024-03-02T15:01:26.152Z,2.20
2024-03-02T15:03:27.954Z,2.47
2024-03-02T15:05:29.682Z,2.95
2024-03-02T15:07:31.376Z,2.30
2024-03-02T15:09:35.069Z,2.35
2024-03-02T15:11:37.078Z,2.80
2024-03-02T15:13:39.062Z,3.35
2024-03-02T15:15:40.946Z,3.38
2024-03-02T15:17:43.097Z,3.72
2024-03-02T15:19:45.838Z,3.00
2024-03-02T15:21:47.517Z,16.92
2024-03-02T15:23:49.243Z,23.80
2024-03-02T15:25:51.000Z,23.48
2024-03-02T15:27:52.818Z,14.65
2024-03-02T15:29:56.547Z,17.67
2024-03-02T15:31:58.963Z,31.92
2024-03-02T15:34:04.048Z,33.90
2024-03-02T15:36:06.497Z,53.30
2024-03-02T15:38:17.959Z,50.28
2024-03-02T15:40:48.415Z,55.90
2024-03-02T15:42:50.223Z,25.17
2024-03-02T15:44:51.936Z,16.95
2024-03-02T15:46:54.010Z,18.85
2024-03-02T15:48:56.516Z,13.88
2024-03-02T15:51:00.939Z,7.10
2024-03-02T15:53:05.718Z,7.13
2024-03-02T15:55:08.077Z,3.95
2024-03-02T15:57:09.879Z,13.02
2024-03-02T15:59:11.611Z,7.10
2024-03-02T16:01:14.368Z,13.25
2024-03-02T16:03:16.064Z,12.80
2024-03-02T16:05:18.425Z,10.85
2024-03-02T16:07:20.127Z,3.58
2024-03-02T16:09:21.962Z,3.47
2024-03-02T16:11:23.942Z,8.38
2024-03-02T16:13:25.711Z,13.52
2024-03-02T16:15:29.643Z,14.40
2024-03-02T16:17:31.491Z,8.30
2024-03-02T16:19:33.734Z,9.07
2024-03-02T19:15:13.250Z,10.80
2024-03-02T19:17:15.077Z,15.02
2024-03-02T19:19:16.995Z,9.00
2024-03-02T19:21:18.746Z,11.27
2024-03-02T19:23:25.730Z,13.60
2024-03-02T19:25:33.737Z,12.48
2024-03-02T19:27:35.509Z,11.55
2024-03-02T19:29:37.326Z,17.13
2024-03-02T19:31:39.230Z,10.88
2024-03-02T19:33:41.401Z,13.52
2024-03-02T19:35:43.490Z,15.38
2024-03-02T19:37:45.227Z,15.40
2024-03-02T19:39:47.198Z,13.88
2024-03-02T19:41:49.177Z,15.98
2024-03-02T19:43:50.993Z,16.80
2024-03-02T19:45:52.931Z,16.35
2024-03-02T19:47:54.753Z,14.43
2024-03-02T19:49:56.549Z,14.65
2024-03-02T19:51:58.400Z,17.67
2024-03-02T19:54:00.784Z,12.88
2024-03-02T19:56:02.762Z,19.95
2024-03-02T19:58:05.259Z,15.80
2024-03-02T20:00:08.057Z,16.80
2024-03-02T20:02:15.336Z,17.83
2024-03-02T20:04:25.287Z,20.13
2024-03-02T20:06:27.045Z,20.17
2024-03-02T20:08:30.416Z,21.38
2024-03-02T20:10:32.575Z,21.38
2024-03-02T20:12:34.744Z,26.70
2024-03-02T20:14:37.385Z,24.60
2024-03-02T20:16:46.638Z,22.15
2024-03-02T20:18:48.411Z,22.40
2024-03-02T20:20:50.174Z,24.88
2024-03-02T20:22:51.874Z,23.38
2024-03-02T20:24:53.634Z,22.85
2024-03-02T20:26:56.228Z,21.27
2024-03-02T20:28:58.384Z,23.73
2024-03-02T20:31:01.354Z,23.45
2024-03-02T20:33:03.200Z,22.58
2024-03-02T20:35:05.249Z,24.20
2024-03-02T20:37:07.443Z,21.83
2024-03-02T20:39:09.724Z,21.88
2024-03-02T20:41:18.671Z,20.25
2024-03-02T20:43:20.448Z,21.25
2024-03-02T20:45:22.250Z,20.85
2024-03-02T20:47:24.303Z,20.33
2024-03-02T20:49:27.403Z,22.42
2024-03-02T20:51:32.626Z,21.60
2024-03-02T20:53:34.646Z,22.00
2024-03-02T20:55:37.403Z,23.13
2024-03-02T20:57:40.829Z,19.13
2024-03-02T20:59:42.661Z,21.27
2024-03-02T21:01:45.700Z,19.92
2024-03-02T21:03:48.366Z,20.85
2024-03-02T21:05:50.520Z,24.98
2024-03-02T21:07:52.350Z,21.30
2024-03-02T21:09:55.321Z,21.17
2024-03-02T21:11:57.318Z,24.17
2024-03-02T21:14:00.126Z,19.33
2024-03-02T21:16:01.938Z,21.10
2024-03-02T21:18:04.190Z,21.67
2024-03-02T21:20:10.165Z,20.70
2024-03-02T21:22:12.003Z,20.83
2024-03-02T21:24:14.943Z,23.98
2024-03-02T21:26:16.679Z,24.70
2024-03-02T21:28:18.543Z,23.42
2024-03-02T21:30:20.769Z,20.63
2024-03-02T21:32:22.607Z,21.30
2024-03-02T21:34:24.477Z,21.83
2024-03-02T21:36:26.232Z,22.10
2024-03-02T21:38:27.909Z,20.67
2024-03-02T21:40:33.265Z,22.63
2024-03-02T21:42:35.194Z,20.55
2024-03-02T21:44:37.011Z,21.60
2024-03-02T21:46:39.647Z,20.30
2024-03-02T21:48:41.360Z,21.23
2024-03-02T21:50:43.173Z,24.15
2024-03-02T21:52:46.486Z,23.88
2024-03-02T21:54:48.733Z,24.02
2024-03-02T21:56:52.402Z,22.25
2024-03-02T21:58:54.465Z,24.05
2024-03-02T22:00:56.259Z,22.92
2024-03-02T22:02:59.543Z,25.42
2024-03-02T22:05:01.572Z,22.25
2024-03-02T22:07:03.993Z,21.77
2024-03-02T22:09:07.124Z,27.67
2024-03-02T22:11:08.938Z,24.23
2024-03-02T22:13:10.888Z,24.92
2024-03-02T22:15:12.700Z,25.83
2024-03-02T22:17:14.525Z,25.15
2024-03-02T22:19:16.305Z,24.17
2024-03-02T22:21:18.094Z,26.70
2024-03-02T22:23:19.882Z,27.17
2024-03-02T22:25:21.781Z,28.88
2024-03-02T22:27:23.594Z,28.48
2024-03-02T22:29:25.665Z,27.65
2024-03-02T22:31:27.759Z,30.95
2024-03-02T22:33:29.518Z,28.85
2024-03-02T22:35:31.571Z,27.20
2024-03-02T22:37:33.604Z,21.30
2024-03-02T22:39:35.342Z,24.70
2024-03-02T22:41:37.290Z,24.98
2024-03-02T22:43:39.325Z,23.00
2024-03-02T22:45:41.775Z,19.95
2024-03-02T22:47:43.610Z,23.60
2024-03-02T22:49:45.342Z,23.20
2024-03-02T22:51:47.492Z,22.50
2024-03-02T22:53:49.693Z,21.50
2024-03-02T22:55:51.426Z,18.83
2024-03-02T22:57:53.252Z,22.38
2024-03-02T22:59:56.208Z,24.38
2024-03-02T23:01:58.140Z,28.33
2024-03-02T23:04:00.079Z,30.67
2024-03-02T23:06:01.868Z,30.38
2024-03-02T23:08:03.692Z,25.15
2024-03-02T23:10:06.361Z,24.10
2024-03-02T23:12:08.439Z,27.77
2024-03-02T23:14:10.965Z,29.02
2024-03-02T23:16:12.772Z,33.72
2024-03-02T23:18:14.695Z,43.92
2024-03-02T23:20:16.507Z,36.28
2024-03-02T23:22:18.306Z,32.38
2024-03-02T23:24:20.505Z,33.30
2024-03-02T23:26:23.631Z,30.25
2024-03-02T23:28:25.380Z,25.25
2024-03-02T23:30:27.633Z,27.33
2024-03-02T23:32:29.606Z,25.40
2024-03-02T23:34:31.580Z,25.33
2024-03-02T23:36:33.594Z,21.85
2024-03-02T23:38:35.330Z,23.48
2024-03-02T23:40:56.932Z,26.38
2024-03-02T23:42:58.634Z,26.13
2024-03-02T23:45:00.500Z,24.75
2024-03-02T23:47:02.355Z,22.15
2024-03-02T23:49:04.352Z,26.02
2024-03-02T23:51:06.543Z,26.98
2024-03-02T23:53:08.193Z,27.10
2024-03-02T23:55:10.072Z,28.60
2024-03-02T23:57:12.104Z,29.80
2024-03-02T23:59:13.940Z,31.80
